createdAt,value
2023-05-06T00:00:22.316Z,97.60
2023-05-06T00:02:49.738Z,97.60
2023-05-06T00:05:18.803Z,97.60
2023-05-06T00:07:46.390Z,97.90
2023-05-06T00:10:14.101Z,97.60
2023-05-06T00:12:41.449Z,97.70
2023-05-06T00:15:09.544Z,97.50
2023-05-06T00:17:37.256Z,97.50
2023-05-06T00:20:06.024Z,97.50
2023-05-06T00:22:33.688Z,97.40
2023-05-06T00:25:01.075Z,97.40
2023-05-06T00:27:28.442Z,97.50
2023-05-06T00:29:55.746Z,97.40
2023-05-06T00:32:23.190Z,97.50
2023-05-06T00:34:51.546Z,97.50
2023-05-06T00:37:18.923Z,97.60
2023-05-06T00:39:46.233Z,97.70
2023-05-06T00:42:13.809Z,97.40
2023-05-06T00:44:41.179Z,97.80
2023-05-06T00:47:08.729Z,97.40
2023-05-06T00:49:36.083Z,97.40
2023-05-06T00:52:04.455Z,97.30
2023-05-06T00:54:32.475Z,97.20
2023-05-06T00:57:00.040Z,97.20
2023-05-06T00:59:27.549Z,97.30
2023-05-06T01:01:55.029Z,97.30
2023-05-06T01:04:24.131Z,97.60
2023-05-06T01:07:10.478Z,97.10
2023-05-06T01:10:00.616Z,97.40
2023-05-06T01:12:39.901Z,97.30
2023-05-06T01:15:38.664Z,97.50
2023-05-06T01:18:10.312Z,97.50
2023-05-06T01:20:39.414Z,97.60
2023-05-06T01:23:10.114Z,97.20
2023-05-06T01:25:37.548Z,97.40
2023-05-06T01:28:07.559Z,97.10
2023-05-06T01:30:59.568Z,96.90
2023-05-06T01:33:53.677Z,97.20
2023-05-06T01:36:41.080Z,96.70
2023-05-06T01:39:22.226Z,96.60
2023-05-06T01:41:51.440Z,97.00
2023-05-06T01:44:22.283Z,97.00
2023-05-06T01:46:51.526Z,97.10
2023-05-06T01:49:19.988Z,97.00
2023-05-06T01:51:53.558Z,96.70
2023-05-06T01:54:21.030Z,97.10
2023-05-06T01:56:48.416Z,97.40
2023-05-06T01:59:16.019Z,96.90
2023-05-06T02:01:43.737Z,97.00
2023-05-06T02:04:11.221Z,96.90
2023-05-06T02:06:38.710Z,96.90
2023-05-06T02:09:06.551Z,97.10
2023-05-06T02:11:38.837Z,96.80
2023-05-06T02:14:07.994Z,96.90
2023-05-06T02:16:36.512Z,97.00
2023-05-06T02:19:04.028Z,96.80
2023-05-06T02:21:31.973Z,96.80
2023-05-06T02:23:59.395Z,96.70
2023-05-06T02:26:26.807Z,96.60
2023-05-06T02:28:54.154Z,96.70
2023-05-06T02:31:21.524Z,96.70
2023-05-06T02:33:48.936Z,96.90
2023-05-06T02:36:16.329Z,96.70
2023-05-06T02:38:43.709Z,97.10
2023-05-06T02:41:10.999Z,96.60
2023-05-06T02:43:38.353Z,96.60
2023-05-06T02:46:05.730Z,96.70
2023-05-06T02:48:33.195Z,96.50
2023-05-06T02:51:02.030Z,97.00
2023-05-06T02:53:29.605Z,96.60
2023-05-06T02:55:56.999Z,96.60
2023-05-06T02:58:24.542Z,96.50
2023-05-06T03:00:52.143Z,96.90
2023-05-06T03:03:19.581Z,96.50
2023-05-06T03:05:47.034Z,96.40
2023-05-06T03:08:14.385Z,96.90
2023-05-06T03:10:41.832Z,96.40
2023-05-06T03:13:09.490Z,96.70
2023-05-06T03:15:37.397Z,96.40
2023-05-06T03:18:04.892Z,96.70
2023-05-06T03:20:32.340Z,96.30
2023-05-06T03:23:01.485Z,96.20
2023-05-06T03:25:29.702Z,96.20
2023-05-06T03:27:57.548Z,96.20
2023-05-06T03:30:24.850Z,96.50
2023-05-06T03:32:56.423Z,96.40
2023-05-06T03:35:29.864Z,96.40
2023-05-06T03:37:59.780Z,96.20
2023-05-06T03:40:33.512Z,96.30
2023-05-06T03:43:01.361Z,96.30
2023-05-06T03:45:28.948Z,96.30
2023-05-06T03:47:58.959Z,96.30
2023-05-06T03:50:27.208Z,96.10
2023-05-06T03:52:55.285Z,96.10
2023-05-06T03:55:25.268Z,96.20
2023-05-06T03:57:52.691Z,96.30
2023-05-06T04:00:21.755Z,96.20
2023-05-06T04:02:53.160Z,96.20
2023-05-06T04:05:30.158Z,96.70
2023-05-06T04:07:58.811Z,96.60
2023-05-06T04:10:26.482Z,96.20
2023-05-06T04:12:57.656Z,96.60
2023-05-06T04:15:32.777Z,96.70
2023-05-06T04:18:01.628Z,96.30
2023-05-06T04:20:29.742Z,97.00
2023-05-06T04:23:01.446Z,96.80
2023-05-06T04:25:30.382Z,96.40
2023-05-06T04:27:57.690Z,96.60
2023-05-06T04:30:25.372Z,96.70
2023-05-06T04:32:53.226Z,96.80
2023-05-06T04:35:21.739Z,96.80
2023-05-06T04:37:49.136Z,96.60
2023-05-06T04:40:23.428Z,96.90
2023-05-06T04:42:52.397Z,96.80
2023-05-06T04:45:24.436Z,97.10
2023-05-06T04:47:52.866Z,96.70
2023-05-06T04:50:20.635Z,96.80
2023-05-06T04:52:48.413Z,96.80
2023-05-06T04:55:18.270Z,96.80
2023-05-06T04:57:50.235Z,96.70
2023-05-06T05:00:18.109Z,96.70
2023-05-06T05:02:46.893Z,96.70
2023-05-06T05:05:16.155Z,96.80
2023-05-06T05:07:46.487Z,96.70
2023-05-06T05:10:14.548Z,96.70
2023-05-06T05:12:42.101Z,97.10
2023-05-06T05:15:10.141Z,96.90
2023-05-06T05:17:38.591Z,96.60
2023-05-06T05:20:08.221Z,97.10
2023-05-06T05:22:36.602Z,96.50
2023-05-06T05:25:06.981Z,96.50
2023-05-06T05:27:36.378Z,96.60
2023-05-06T05:30:03.951Z,96.80
2023-05-06T05:32:34.625Z,96.70
2023-05-06T05:35:02.012Z,96.80
2023-05-06T05:37:29.403Z,96.70
2023-05-06T05:39:57.344Z,96.90
2023-05-06T05:42:25.390Z,96.70
2023-05-06T05:44:53.274Z,96.60
2023-05-06T05:47:21.797Z,96.50
2023-05-06T05:49:49.588Z,96.80
2023-05-06T05:52:17.149Z,96.50
2023-05-06T05:54:44.558Z,96.60
2023-05-06T05:57:12.301Z,96.60
2023-05-06T05:59:39.905Z,96.50
2023-05-06T06:02:07.882Z,96.60
2023-05-06T06:04:35.178Z,96.70
2023-05-06T06:07:04.304Z,97.00
2023-05-06T06:09:36.334Z,96.60
2023-05-06T06:12:04.684Z,96.60
2023-05-06T06:14:34.423Z,96.60
2023-05-06T06:17:02.068Z,96.60
2023-05-06T06:19:30.133Z,96.70
2023-05-06T06:21:57.800Z,96.80
2023-05-06T06:24:25.334Z,96.70
2023-05-06T06:26:52.682Z,96.70
2023-05-06T06:29:20.205Z,96.80
2023-05-06T06:31:47.707Z,96.70
2023-05-06T06:34:15.050Z,96.70
2023-05-06T06:36:46.122Z,96.50
2023-05-06T06:39:13.805Z,96.80
2023-05-06T06:41:41.720Z,96.90
2023-05-06T06:44:09.026Z,96.80
2023-05-06T06:46:36.374Z,96.70
2023-05-06T06:49:03.764Z,96.90
2023-05-06T06:51:31.917Z,96.80
2023-05-06T06:53:59.291Z,97.10
2023-05-06T06:56:26.574Z,96.90
2023-05-06T06:58:53.907Z,96.90
2023-05-06T07:01:21.279Z,96.80
2023-05-06T07:03:48.672Z,97.00
2023-05-06T07:06:16.034Z,97.10
2023-05-06T07:08:43.450Z,96.80
2023-05-06T07:11:12.109Z,96.70
2023-05-06T07:13:39.416Z,96.60
2023-05-06T07:16:06.843Z,95.80
2023-05-06T07:18:34.448Z,95.70
2023-05-06T07:21:01.902Z,95.60
2023-05-06T07:23:31.109Z,95.50
2023-05-06T07:25:59.698Z,95.50
2023-05-06T07:28:27.134Z,95.60
2023-05-06T07:30:54.675Z,95.70
2023-05-06T07:33:22.030Z,95.50
2023-05-06T07:35:49.369Z,95.30
2023-05-06T07:38:16.706Z,95.60
2023-05-06T07:40:44.065Z,95.30
2023-05-06T07:43:11.391Z,95.20
2023-05-06T07:45:38.742Z,95.10
2023-05-06T07:48:06.414Z,95.10
2023-05-06T07:50:34.459Z,95.20
2023-05-06T07:53:02.109Z,95.00
2023-05-06T07:55:29.824Z,95.00
2023-05-06T07:57:57.237Z,94.70
2023-05-06T08:00:24.759Z,94.40
2023-05-06T08:02:52.105Z,94.40
2023-05-06T08:05:19.549Z,94.30
2023-05-06T08:07:47.006Z,94.50
2023-05-06T08:10:14.362Z,94.60
2023-05-06T08:12:42.005Z,94.80
2023-05-06T08:15:10.371Z,94.30
2023-05-06T08:17:38.194Z,94.00
2023-05-06T08:20:07.166Z,94.30
2023-05-06T08:22:34.549Z,94.00
2023-05-06T08:25:02.015Z,93.60
2023-05-06T08:27:29.336Z,93.50
2023-05-06T08:29:56.794Z,93.10
2023-05-06T08:32:24.313Z,93.10
2023-05-06T08:34:52.208Z,92.80
2023-05-06T08:37:19.596Z,93.40
2023-05-06T08:39:46.932Z,93.00
2023-05-06T08:42:14.326Z,92.90
2023-05-06T08:44:43.767Z,92.80
2023-05-06T08:47:11.097Z,92.50
2023-05-06T08:49:38.557Z,92.40
2023-05-06T08:52:06.398Z,92.70
2023-05-06T08:54:37.099Z,92.80
2023-05-06T08:57:10.386Z,92.80
2023-05-06T08:59:41.536Z,92.70
2023-05-06T09:02:10.648Z,92.50
2023-05-06T09:04:38.158Z,92.50
2023-05-06T09:07:05.454Z,92.20
2023-05-06T09:09:33.382Z,92.10
2023-05-06T09:12:02.258Z,92.10
2023-05-06T09:14:29.883Z,92.20
2023-05-06T09:16:58.103Z,92.20
2023-05-06T09:19:26.264Z,92.10
2023-05-06T09:21:53.626Z,91.90
2023-05-06T09:24:21.204Z,91.70
2023-05-06T09:26:48.599Z,91.80
2023-05-06T09:29:16.152Z,91.80
2023-05-06T09:31:45.690Z,91.30
2023-05-06T09:34:14.223Z,90.80
2023-05-06T09:36:41.927Z,90.70
2023-05-06T09:39:09.996Z,90.70
2023-05-06T09:41:37.956Z,90.60
2023-05-06T09:44:06.182Z,90.60
2023-05-06T09:46:33.672Z,90.20
2023-05-06T09:49:01.636Z,90.30
2023-05-06T09:51:31.082Z,90.10
2023-05-06T09:54:00.754Z,89.20
2023-05-06T09:56:29.399Z,89.60
2023-05-06T09:58:58.341Z,89.50
2023-05-06T10:01:36.114Z,89.60
2023-05-06T10:04:09.829Z,89.20
2023-05-06T10:06:40.871Z,89.10
2023-05-06T10:09:09.397Z,89.10
2023-05-06T10:11:37.437Z,89.00
2023-05-06T10:14:07.076Z,88.10
2023-05-06T10:16:36.259Z,86.60
2023-05-06T10:19:06.650Z,86.10
2023-05-06T10:21:39.594Z,86.10
2023-05-06T10:24:11.373Z,86.70
2023-05-06T10:26:40.315Z,86.40
2023-05-06T10:29:10.307Z,85.20
2023-05-06T10:31:55.854Z,85.40
2023-05-06T10:34:24.984Z,85.50
2023-05-06T10:36:57.384Z,84.90
2023-05-06T10:39:25.982Z,85.40
2023-05-06T10:41:53.448Z,84.80
2023-05-06T10:44:56.485Z,84.30
2023-05-06T10:47:23.934Z,83.00
2023-05-06T10:50:24.198Z,83.60
2023-05-06T10:52:55.425Z,82.50
2023-05-06T10:55:32.661Z,82.20
2023-05-06T10:58:19.261Z,81.30
2023-05-06T11:00:55.855Z,81.20
2023-05-06T11:03:24.306Z,81.00
2023-05-06T11:05:52.721Z,81.50
2023-05-06T11:08:27.161Z,79.40
2023-05-06T11:10:54.861Z,77.70
2023-05-06T11:13:26.588Z,77.10
2023-05-06T11:15:56.193Z,76.70
2023-05-06T11:18:27.630Z,77.90
2023-05-06T11:21:03.484Z,77.90
2023-05-06T11:23:44.444Z,77.50
2023-05-06T11:26:13.195Z,78.40
2023-05-06T11:28:43.589Z,77.40
2023-05-06T11:31:12.555Z,77.20
2023-05-06T11:33:50.352Z,78.40
2023-05-06T11:36:19.699Z,76.00
2023-05-06T11:38:59.017Z,75.00
2023-05-06T11:41:26.400Z,74.40
2023-05-06T11:43:53.875Z,74.50
2023-05-06T11:46:23.858Z,74.70
2023-05-06T11:48:51.367Z,75.20
2023-05-06T11:51:25.166Z,76.00
2023-05-06T11:53:54.156Z,74.80
2023-05-06T11:56:21.469Z,74.70
2023-05-06T11:58:48.785Z,74.60
2023-05-06T12:01:16.114Z,73.70
2023-05-06T12:03:43.635Z,74.40
2023-05-06T12:06:12.728Z,74.50
2023-05-06T12:08:40.370Z,74.10
2023-05-06T12:11:09.044Z,74.40
2023-05-06T12:13:37.723Z,73.70
2023-05-06T12:16:05.873Z,71.70
2023-05-06T12:18:33.892Z,71.00
2023-05-06T12:21:06.008Z,72.60
2023-05-06T12:23:33.493Z,69.70
2023-05-06T12:26:06.219Z,70.60
2023-05-06T12:28:35.499Z,68.60
2023-05-06T12:31:20.090Z,68.00
2023-05-06T12:33:51.418Z,66.60
2023-05-06T12:36:19.428Z,66.60
2023-05-06T12:38:54.607Z,67.40
2023-05-06T12:41:23.322Z,66.30
2023-05-06T12:43:52.817Z,66.30
2023-05-06T12:46:20.261Z,65.30
2023-05-06T12:49:01.723Z,66.70
2023-05-06T12:51:30.970Z,66.30
2023-05-06T12:53:58.480Z,65.30
2023-05-06T12:56:25.972Z,64.20
2023-05-06T12:59:03.425Z,64.40
2023-05-06T13:01:31.687Z,64.00
2023-05-06T13:03:59.281Z,64.10
2023-05-06T13:06:26.673Z,63.60
2023-05-06T13:08:54.048Z,63.80
2023-05-06T13:11:22.274Z,64.20
2023-05-06T13:13:49.641Z,63.80
2023-05-06T13:16:17.114Z,63.70
2023-05-06T13:18:44.520Z,64.90
2023-05-06T13:21:13.212Z,64.30
2023-05-06T13:23:47.078Z,64.30
2023-05-06T13:26:15.102Z,64.30
2023-05-06T13:28:42.528Z,65.00
2023-05-06T13:31:10.227Z,63.70
2023-05-06T13:33:37.929Z,62.70
2023-05-06T13:36:05.773Z,63.10
2023-05-06T13:38:33.200Z,62.50
2023-05-06T13:41:01.717Z,63.00
2023-05-06T13:43:29.054Z,64.10
2023-05-06T13:45:56.456Z,62.70
2023-05-06T13:48:23.846Z,63.20
2023-05-06T13:50:51.344Z,62.40
2023-05-06T13:53:18.742Z,62.20
2023-05-06T13:55:46.987Z,62.70
2023-05-06T13:58:14.488Z,62.70
2023-05-06T14:00:41.824Z,63.00
2023-05-06T14:03:09.684Z,62.60
2023-05-06T14:05:37.265Z,61.60
2023-05-06T14:08:08.349Z,61.80
2023-05-06T14:10:35.760Z,62.10
2023-05-06T14:13:06.209Z,62.20
2023-05-06T14:15:34.717Z,61.50
2023-05-06T14:18:02.175Z,60.90
2023-05-06T14:20:31.292Z,60.60
2023-05-06T14:22:58.686Z,61.10
2023-05-06T14:25:27.998Z,61.00
2023-05-06T14:27:55.780Z,61.60
2023-05-06T14:30:23.270Z,60.10
2023-05-06T14:32:50.820Z,60.10
2023-05-06T14:35:18.683Z,60.30
2023-05-06T14:37:47.181Z,59.20
2023-05-06T14:40:15.996Z,60.40
2023-05-06T14:42:43.753Z,59.50
2023-05-06T14:45:11.973Z,59.90
2023-05-06T14:47:40.707Z,60.00
2023-05-06T14:50:09.605Z,60.00
2023-05-06T14:52:39.344Z,59.70
2023-05-06T14:55:08.916Z,59.50
2023-05-06T14:57:36.810Z,59.40
2023-05-06T15:00:08.699Z,59.80
2023-05-06T15:02:38.469Z,60.70
2023-05-06T15:05:15.593Z,60.10
2023-05-06T15:07:43.397Z,60.70
2023-05-06T15:10:11.339Z,61.40
2023-05-06T15:12:38.780Z,60.70
2023-05-06T15:15:07.152Z,61.10
2023-05-06T15:17:34.664Z,61.20
2023-05-06T15:20:02.254Z,61.50
2023-05-06T15:22:29.632Z,61.70
2023-05-06T15:24:57.101Z,63.20
2023-05-06T15:27:25.041Z,61.30
2023-05-06T15:29:52.355Z,61.30
2023-05-06T15:32:19.781Z,61.30
2023-05-06T15:34:47.185Z,61.30
2023-05-06T15:37:19.155Z,61.60
2023-05-06T15:39:47.981Z,61.40
2023-05-06T15:42:16.981Z,60.10
2023-05-06T15:44:44.411Z,61.00
2023-05-06T15:47:11.950Z,61.00
2023-05-06T15:52:09.600Z,60.80
2023-05-06T15:54:37.489Z,61.00
2023-05-06T15:57:07.205Z,62.00
2023-05-06T15:59:34.819Z,61.70
2023-05-06T16:04:39.542Z,61.50
2023-05-06T16:07:07.601Z,61.70
2023-05-06T16:09:35.094Z,60.80
2023-05-06T16:12:02.492Z,61.70
2023-05-06T16:14:29.981Z,61.10
2023-05-06T16:16:58.285Z,63.90
2023-05-06T16:19:26.232Z,60.70
2023-05-06T16:21:53.592Z,61.40
2023-05-06T16:24:21.024Z,64.00
2023-05-06T16:26:48.488Z,62.10
2023-05-06T16:29:19.052Z,62.90
2023-05-06T16:31:49.635Z,61.40
2023-05-06T16:34:17.202Z,60.60
2023-05-06T16:36:44.675Z,62.60
2023-05-06T16:39:12.132Z,63.70
2023-05-06T16:41:39.467Z,63.60
2023-05-06T16:44:06.906Z,61.90
2023-05-06T16:46:34.345Z,61.70
2023-05-06T16:49:03.756Z,62.50
2023-05-06T16:51:32.114Z,62.30
2023-05-06T16:53:59.471Z,62.10
2023-05-06T16:56:32.892Z,62.40
2023-05-06T16:59:07.806Z,62.30
2023-05-06T17:01:35.155Z,63.00
2023-05-06T17:04:02.561Z,64.50
2023-05-06T17:06:31.489Z,63.80
2023-05-06T17:08:59.191Z,63.80
2023-05-06T17:11:26.561Z,63.60
2023-05-06T17:13:54.592Z,63.70
2023-05-06T17:16:22.256Z,64.20
2023-05-06T17:18:49.711Z,63.90
2023-05-06T17:21:17.174Z,64.50
2023-05-06T17:23:44.509Z,65.30
2023-05-06T17:26:12.012Z,66.10
2023-05-06T17:28:39.404Z,67.60
2023-05-06T17:31:08.234Z,68.60
2023-05-06T17:33:35.836Z,70.80
2023-05-06T17:36:03.279Z,70.70
2023-05-06T17:38:30.645Z,73.00
2023-05-06T17:40:57.978Z,74.60
2023-05-06T17:43:25.318Z,75.40
2023-05-06T17:45:52.700Z,76.40
2023-05-06T17:48:20.122Z,76.50
2023-05-06T17:50:47.538Z,77.60
2023-05-06T17:53:14.914Z,77.60
2023-05-06T17:55:42.443Z,78.50
2023-05-06T17:58:09.872Z,78.30
2023-05-06T18:00:38.272Z,79.70
2023-05-06T18:03:05.869Z,78.20
2023-05-06T18:05:33.361Z,79.10
2023-05-06T18:08:00.745Z,78.80
2023-05-06T18:10:28.129Z,79.40
2023-05-06T18:12:57.290Z,79.80
2023-05-06T18:15:26.262Z,79.60
2023-05-06T18:17:53.826Z,80.10
2023-05-06T18:20:21.232Z,80.10
2023-05-06T18:22:48.790Z,80.30
2023-05-06T18:25:17.352Z,80.60
2023-05-06T18:27:44.736Z,80.70
2023-05-06T18:30:12.361Z,80.60
2023-05-06T18:32:39.872Z,80.30
2023-05-06T18:35:08.029Z,80.50
2023-05-06T18:37:35.514Z,80.30
2023-05-06T18:40:03.809Z,80.80
2023-05-06T18:42:31.761Z,80.40
2023-05-06T18:45:01.476Z,80.80
2023-05-06T18:47:29.145Z,81.20
2023-05-06T18:49:57.610Z,82.20
2023-05-06T18:52:24.964Z,81.30
2023-05-06T18:54:52.382Z,81.50
2023-05-06T18:57:19.882Z,82.60
2023-05-06T18:59:47.343Z,81.60
2023-05-06T19:02:14.720Z,81.50
2023-05-06T19:04:42.112Z,81.50
2023-05-06T19:07:10.293Z,81.40
2023-05-06T19:09:39.214Z,81.20
2023-05-06T19:12:06.673Z,82.40
2023-05-06T19:14:34.802Z,82.00
2023-05-06T19:17:04.972Z,81.90
2023-05-06T19:19:32.523Z,82.00
2023-05-06T19:22:01.781Z,82.60
2023-05-06T19:24:29.985Z,82.60
2023-05-06T19:26:57.467Z,82.90
2023-05-06T19:29:24.992Z,82.90
2023-05-06T19:31:55.109Z,83.80
2023-05-06T19:34:22.387Z,83.30
2023-05-06T19:36:50.086Z,83.00
2023-05-06T19:39:19.137Z,83.30
2023-05-06T19:41:47.257Z,84.10
2023-05-06T19:44:14.781Z,83.30
2023-05-06T19:46:42.229Z,84.20
2023-05-06T19:49:09.721Z,83.70
2023-05-06T19:51:37.122Z,83.80
2023-05-06T19:54:04.529Z,84.60
2023-05-06T19:56:31.968Z,84.80
2023-05-06T19:58:59.327Z,84.50
2023-05-06T20:01:27.197Z,84.60
2023-05-06T20:03:55.245Z,84.60
2023-05-06T20:06:22.671Z,84.40
2023-05-06T20:08:50.031Z,84.60
2023-05-06T20:11:17.541Z,84.60
2023-05-06T20:13:45.266Z,84.70
2023-05-06T20:16:13.138Z,84.70
2023-05-06T20:18:40.633Z,84.90
2023-05-06T20:21:08.092Z,85.40
2023-05-06T20:23:35.379Z,85.50
2023-05-06T20:26:02.733Z,85.10
2023-05-06T20:28:31.461Z,85.20
2023-05-06T20:30:59.860Z,85.20
2023-05-06T20:33:27.310Z,85.10
2023-05-06T20:35:55.426Z,85.60
2023-05-06T20:38:22.808Z,85.50
2023-05-06T20:40:50.259Z,85.60
2023-05-06T20:43:17.674Z,86.20
2023-05-06T20:45:45.064Z,85.50
2023-05-06T20:48:14.964Z,85.90
2023-05-06T20:50:42.707Z,86.30
2023-05-06T20:53:10.305Z,85.90
2023-05-06T20:55:37.841Z,86.00
2023-05-06T20:58:05.400Z,85.70
2023-05-06T21:00:32.750Z,86.10
2023-05-06T21:03:00.757Z,86.80
2023-05-06T21:05:29.620Z,85.80
2023-05-06T21:07:59.921Z,86.40
2023-05-06T21:10:27.267Z,86.10
2023-05-06T21:12:54.793Z,86.20
2023-05-06T21:15:22.278Z,86.60
2023-05-06T21:17:49.864Z,86.50
2023-05-06T21:20:17.348Z,86.50
2023-05-06T21:22:45.104Z,86.80
2023-05-06T21:25:13.334Z,86.40
2023-05-06T21:27:40.812Z,86.70
2023-05-06T21:30:09.034Z,87.00
2023-05-06T21:32:36.468Z,87.10
2023-05-06T21:35:04.409Z,87.50
2023-05-06T21:37:31.958Z,87.40
2023-05-06T21:40:00.005Z,87.50
2023-05-06T21:42:27.809Z,87.60
2023-05-06T21:44:55.184Z,88.20
2023-05-06T21:47:22.667Z,87.60
2023-05-06T21:49:50.072Z,87.70
2023-05-06T21:52:17.497Z,87.70
2023-05-06T21:54:47.859Z,88.00
2023-05-06T21:57:16.620Z,88.10
2023-05-06T21:59:44.313Z,87.60
2023-05-06T22:02:11.897Z,87.90
2023-05-06T22:04:39.354Z,88.40
2023-05-06T22:07:07.688Z,88.10
2023-05-06T22:09:35.124Z,88.30
2023-05-06T22:12:06.859Z,88.30
2023-05-06T22:14:41.233Z,88.60
2023-05-06T22:17:10.425Z,88.60
2023-05-06T22:19:38.630Z,88.60
2023-05-06T22:22:06.755Z,88.80
2023-05-06T22:24:34.281Z,89.30
2023-05-06T22:27:04.118Z,89.20
2023-05-06T22:29:31.521Z,89.10
2023-05-06T22:31:58.974Z,89.10
2023-05-06T22:34:26.457Z,89.60
2023-05-06T22:36:53.822Z,89.00
2023-05-06T22:39:21.556Z,89.30
2023-05-06T22:41:50.763Z,89.60
2023-05-06T22:44:18.194Z,89.20
2023-05-06T22:46:45.665Z,89.80
2023-05-06T22:49:13.865Z,89.60
2023-05-06T22:51:41.588Z,89.50
2023-05-06T22:54:09.072Z,89.70
2023-05-06T22:56:36.373Z,89.80
2023-05-06T22:59:06.052Z,89.70
2023-05-06T23:01:33.643Z,89.60
2023-05-06T23:04:01.086Z,89.90
2023-05-06T23:06:28.563Z,90.00
2023-05-06T23:08:56.125Z,90.10
2023-05-06T23:11:23.519Z,90.00
2023-05-06T23:13:50.974Z,90.10
2023-05-06T23:16:19.835Z,90.30
2023-05-06T23:18:47.334Z,90.10
2023-05-06T23:21:15.093Z,90.20
2023-05-06T23:23:42.525Z,90.20
2023-05-06T23:26:10.539Z,90.20
2023-05-06T23:28:37.879Z,90.20
2023-05-06T23:31:05.355Z,90.30
2023-05-06T23:33:32.771Z,90.30
2023-05-06T23:36:00.954Z,90.30
2023-05-06T23:38:28.714Z,90.40
2023-05-06T23:40:56.031Z,90.40
2023-05-06T23:43:23.437Z,90.30
2023-05-06T23:45:51.065Z,90.40
2023-05-06T23:48:18.460Z,90.30
2023-05-06T23:50:45.878Z,90.40
2023-05-06T23:53:13.671Z,90.50
2023-05-06T23:55:42.699Z,90.50
2023-05-06T23:58:10.297Z,90.40
